Time;durP1;ratioP1;P1;durP2;ratioP2;P2;SDS_P1;SDS_P2;PMS_P1;PMS_P2;Temp;Humidity;BMP_temperature;BMP_pressure;BME280_temperature;BME280_humidity;BME280_pressure;Samples;Min_cycle;Max_cycle;Signal;HPM_P1;HPM_P2
2022/05/30 17:22:57;;;;;;;6.40;3.95;;;;;;;17.50;100.00;99355.09;1794490;78;22560;-67
2022/05/30 17:25:26;;;;;;;7.83;4.55;;;;;;;17.51;100.00;99353.37;1749506;80;21503;-67
2022/05/30 17:30:40;;;;;;;8.20;3.90;;;;;;;17.79;100.00;99350.50;1759860;81;21659;-67
2022/05/30 17:33:07;;;;;;;5.58;3.62;;;;;;;17.90;100.00;99343.51;1759597;80;21121;-66
2022/05/30 17:35:34;;;;;;;7.20;3.75;;;;;;;18.01;100.00;99343.95;1753515;81;21043;-66
2022/05/30 17:38:00;;;;;;;7.92;3.98;;;;;;;18.11;100.00;99355.17;1749218;81;21057;-67
2022/05/30 17:40:27;;;;;;;5.30;4.10;;;;;;;18.19;100.00;99352.95;1753462;81;21051;-67
2022/05/30 17:42:55;;;;;;;6.12;3.55;;;;;;;18.26;100.00;99359.56;1760254;80;21047;-67
2022/05/30 17:45:22;;;;;;;6.85;4.03;;;;;;;18.33;100.00;99357.10;1749118;80;21462;-66
2022/05/30 17:48:07;;;;;;;7.30;3.83;;;;;;;18.39;100.00;99353.58;1748468;80;21069;-67
2022/05/30 17:50:43;;;;;;;6.37;3.52;;;;;;;18.42;100.00;99353.50;1751593;81;21534;-66
2022/05/30 17:53:10;;;;;;;5.08;3.27;;;;;;;18.45;100.00;99352.27;1758813;80;21013;-66
2022/05/30 17:55:41;;;;;;;8.95;3.25;;;;;;;18.48;100.00;99358.48;1750383;81;21513;-66
2022/05/30 17:58:08;;;;;;;5.92;3.30;;;;;;;18.50;100.00;99358.95;1730286;81;21047;-67
2022/05/30 18:00:37;;;;;;;8.45;3.27;;;;;;;18.53;100.00;99358.31;1759803;81;21478;-67
2022/05/30 18:03:06;;;;;;;5.83;3.52;;;;;;;18.55;100.00;99365.69;1757177;80;21688;-67
2022/05/30 18:05:33;;;;;;;6.15;3.40;;;;;;;18.54;100.00;99375.66;1757238;81;21002;-68
2022/05/30 18:08:18;;;;;;;7.42;3.60;;;;;;;18.49;100.00;99375.84;1753638;80;21322;-67
2022/05/30 18:11:09;;;;;;;5.60;3.50;;;;;;;18.49;100.00;99380.78;1712748;82;21007;-67
2022/05/30 18:13:53;;;;;;;6.87;3.50;;;;;;;18.50;100.00;99387.89;1694868;83;21636;-67
2022/05/30 18:16:25;;;;;;;7.17;3.50;;;;;;;18.50;100.00;99393.40;1719745;81;21066;-67
2022/05/30 18:22:18;;;;;;;7.37;3.27;;;;;;;18.40;100.00;99405.61;1720929;82;21051;-67
2022/05/30 18:25:14;;;;;;;7.58;3.30;;;;;;;18.40;100.00;99415.83;1753179;80;20967;-66
2022/05/30 18:27:48;;;;;;;6.30;3.00;;;;;;;18.40;100.00;99420.77;1750590;80;21096;-67
2022/05/30 18:30:16;;;;;;;7.58;3.47;;;;;;;18.40;100.00;99423.53;1712001;82;21506;-68
2022/05/30 18:33:13;;;;;;;9.75;3.35;;;;;;;18.38;100.00;99420.31;1754365;80;21070;-69
2022/05/30 18:35:57;;;;;;;6.55;3.92;;;;;;;18.34;100.00;99422.10;1748821;81;21007;-68
2022/05/30 18:39:01;;;;;;;8.90;3.58;;;;;;;18.27;100.00;99427.88;1746506;81;21060;-67
2022/05/30 18:41:41;;;;;;;6.95;3.27;;;;;;;18.21;100.00;99425.86;1749003;80;21581;-68
2022/05/30 18:44:23;;;;;;;8.80;3.55;;;;;;;18.17;100.00;99431.81;1748836;80;21035;-69
2022/05/30 18:46:54;;;;;;;8.10;3.22;;;;;;;18.11;100.00;99432.29;1749815;80;21565;-68
2022/05/30 18:49:40;;;;;;;9.00;3.45;;;;;;;18.05;100.00;99434.99;1750528;80;21062;-70
2022/05/30 18:52:08;;;;;;;10.30;3.47;;;;;;;18.02;100.00;99444.73;1751376;80;21087;-68
2022/05/30 18:54:36;;;;;;;7.87;3.47;;;;;;;17.97;100.00;99446.27;1751616;81;21576;-68
2022/05/30 18:57:06;;;;;;;10.00;3.20;;;;;;;17.91;100.00;99447.58;1747804;80;21062;-68
2022/05/30 18:59:44;;;;;;;5.50;3.15;;;;;;;17.90;100.00;99451.46;1750575;81;21078;-68
2022/05/30 19:02:11;;;;;;;8.15;3.55;;;;;;;17.94;100.00;99455.19;1730813;80;21070;-68
2022/05/30 19:04:37;;;;;;;6.53;2.77;;;;;;;17.94;100.00;99450.24;1751307;80;21556;-68
2022/05/30 19:07:04;;;;;;;6.92;3.40;;;;;;;17.95;100.00;99451.87;1753974;81;20995;-68
2022/05/30 19:09:32;;;;;;;7.00;3.42;;;;;;;17.95;100.00;99450.49;1746341;81;21515;-68
2022/05/30 19:12:07;;;;;;;7.00;3.72;;;;;;;17.96;100.00;99450.15;1751137;81;21010;-68
2022/05/30 19:14:45;;;;;;;10.03;4.00;;;;;;;17.93;100.00;99450.80;1754330;82;21019;-68
2022/05/30 19:17:32;;;;;;;8.93;4.67;;;;;;;17.88;100.00;99450.43;1754235;81;21018;-69
2022/05/30 19:20:18;;;;;;;14.38;6.22;;;;;;;17.85;100.00;99453.81;1747837;81;21152;-69
2022/05/30 19:22:52;;;;;;;6.72;4.10;;;;;;;17.87;100.00;99454.88;1734697;81;21727;-69
2022/05/30 19:25:21;;;;;;;8.45;3.60;;;;;;;17.84;100.00;99449.46;1720938;83;21555;-68
2022/05/30 19:27:50;;;;;;;6.60;3.20;;;;;;;17.86;100.00;99465.64;1724238;82;21004;-69
2022/05/30 19:30:22;;;;;;;8.78;3.50;;;;;;;17.86;100.00;99463.70;1724276;81;21008;-68
2022/05/30 19:32:53;;;;;;;8.00;3.60;;;;;;;17.90;100.00;99472.93;1731946;81;21059;-69
2022/05/30 19:35:32;;;;;;;8.90;3.58;;;;;;;17.89;100.00;99474.62;1723361;81;21039;-68
2022/05/30 19:37:56;;;;;;;8.13;3.80;;;;;;;17.85;100.00;99480.56;1729040;81;21549;-69
2022/05/30 19:40:25;;;;;;;7.10;3.50;;;;;;;17.84;100.00;99485.25;1720435;81;21530;-69
2022/05/30 19:42:52;;;;;;;8.65;3.60;;;;;;;17.86;100.00;99489.86;1718162;82;21592;-68
2022/05/30 19:45:19;;;;;;;6.60;3.42;;;;;;;17.87;100.00;99492.86;1725805;83;21062;-69
2022/05/30 19:47:46;;;;;;;8.23;3.45;;;;;;;17.86;100.00;99489.86;1739427;81;21087;-69
2022/05/30 19:50:13;;;;;;;8.00;3.83;;;;;;;17.90;100.00;99488.08;1708372;82;21067;-69
2022/05/30 19:52:39;;;;;;;7.47;3.55;;;;;;;17.90;100.00;99494.14;1725494;82;21098;-69
2022/05/30 19:55:15;;;;;;;8.10;3.40;;;;;;;17.87;100.00;99505.81;1730652;82;21047;-69
2022/05/30 19:57:39;;;;;;;5.70;2.95;;;;;;;17.86;100.00;99502.25;1738799;82;21063;-68
2022/05/30 20:00:08;;;;;;;8.55;3.55;;;;;;;17.88;100.00;99507.44;1729793;81;21010;-68
2022/05/30 20:02:35;;;;;;;6.15;3.17;;;;;;;17.89;100.00;99514.55;1733163;81;21094;-68
2022/05/30 20:05:01;;;;;;;;;;;;;;;17.89;100.00;99510.41;1714013;82;21534;-69
2022/05/30 20:07:29;;;;;;;8.63;4.15;;;;;;;17.85;100.00;99517.14;1726011;82;20131;-68
2022/05/30 20:09:59;;;;;;;6.62;4.05;;;;;;;17.69;100.00;99516.02;1743396;82;21051;-68
2022/05/30 20:12:25;;;;;;;11.12;4.28;;;;;;;17.61;100.00;99516.01;1736492;81;21027;-68
2022/05/30 20:14:52;;;;;;;9.95;5.75;;;;;;;17.53;100.00;99518.99;1726917;81;21007;-68
2022/05/30 20:17:18;;;;;;;8.65;4.12;;;;;;;17.46;100.00;99517.84;1734626;81;20999;-68
2022/05/30 20:19:45;;;;;;;10.23;4.20;;;;;;;17.38;100.00;99520.27;1735291;81;21046;-69
2022/05/30 20:22:12;;;;;;;8.55;4.03;;;;;;;17.35;100.00;99516.79;1739150;80;21040;-69
2022/05/30 20:24:41;;;;;;;8.35;3.60;;;;;;;17.27;100.00;99518.95;1716241;82;20989;-69
2022/05/30 20:27:09;;;;;;;8.60;3.92;;;;;;;17.18;100.00;99522.83;1718645;83;21046;-70
2022/05/30 20:29:37;;;;;;;15.05;9.00;;;;;;;17.11;100.00;99523.27;1717555;83;21532;-69
2022/05/30 20:32:05;;;;;;;18.75;11.55;;;;;;;17.07;100.00;99521.50;1726146;82;21056;-70
2022/05/30 20:34:31;;;;;;;12.78;8.63;;;;;;;17.02;100.00;99538.13;1718470;83;21016;-70
2022/05/30 20:36:58;;;;;;;16.23;10.82;;;;;;;16.96;100.00;99542.98;1722209;83;21078;-69
2022/05/30 20:39:25;;;;;;;12.68;8.95;;;;;;;16.90;100.00;99545.61;1686818;85;22022;-69
2022/05/30 20:44:36;;;;;;;13.50;6.15;;;;;;;16.76;100.00;99555.34;1720747;83;21438;-69
2022/05/30 20:47:04;;;;;;;;;;;;;;;16.65;100.00;99557.33;1723704;82;21056;-69
2022/05/30 20:49:31;;;;;;;14.00;8.78;;;;;;;16.53;100.00;99555.12;1724225;82;20129;-69
2022/05/30 20:51:58;;;;;;;13.70;8.38;;;;;;;16.41;100.00;99554.88;1726339;82;20978;-69
2022/05/30 20:54:25;;;;;;;10.23;7.33;;;;;;;16.44;100.00;99560.56;1721826;83;21096;-69
2022/05/30 20:56:52;;;;;;;13.40;8.93;;;;;;;16.52;100.00;99558.17;1721143;83;21124;-69
2022/05/30 20:59:19;;;;;;;11.60;7.08;;;;;;;16.57;100.00;99556.70;1718998;82;21593;-69
2022/05/30 21:01:47;;;;;;;12.07;8.30;;;;;;;16.61;100.00;99558.52;1729383;82;21054;-69
2022/05/30 21:04:16;;;;;;;11.08;7.80;;;;;;;16.62;100.00;99562.05;1714033;82;21126;-69
2022/05/30 21:06:42;;;;;;;13.78;5.90;;;;;;;16.57;100.00;99574.57;1719993;83;20969;-69
2022/05/30 21:09:08;;;;;;;8.20;5.00;;;;;;;16.47;100.00;99589.92;1728210;82;21097;-69
2022/05/30 21:11:37;;;;;;;10.98;5.47;;;;;;;16.39;100.00;99589.55;1717282;82;21546;-69
2022/05/30 21:14:04;;;;;;;7.92;4.45;;;;;;;16.36;100.00;99597.61;1721933;83;21531;-69
2022/05/30 21:16:45;;;;;;;7.85;4.87;;;;;;;16.37;100.00;99600.58;1719924;83;20949;-69
2022/05/30 21:19:50;;;;;;;8.25;4.55;;;;;;;16.41;100.00;99598.84;1727954;82;21074;-69
2022/05/30 21:22:19;;;;;;;8.48;4.78;;;;;;;16.47;100.00;99597.61;1716841;81;21038;-69
2022/05/30 21:24:46;;;;;;;10.05;5.03;;;;;;;16.55;100.00;99598.20;1746780;82;20987;-69
2022/05/30 21:27:14;;;;;;;9.05;4.45;;;;;;;16.56;100.00;99595.73;1746730;81;21046;-69
2022/05/30 21:29:41;;;;;;;8.15;4.78;;;;;;;16.62;100.00;99599.97;1744877;81;20988;-69
2022/05/30 21:32:35;;;;;;;8.78;4.35;;;;;;;16.70;100.00;99603.34;1744795;81;21022;-68
2022/05/30 21:35:02;;;;;;;7.33;4.42;;;;;;;16.81;100.00;99599.75;1738443;81;21615;-68
2022/05/30 21:37:29;;;;;;;7.62;4.37;;;;;;;16.90;100.00;99601.41;1736622;81;21066;-68
2022/05/30 21:39:56;;;;;;;7.83;4.20;;;;;;;16.94;100.00;99607.08;1734830;81;21007;-68
2022/05/30 21:42:23;;;;;;;9.73;4.22;;;;;;;17.01;100.00;99610.19;1740841;81;21075;-68
2022/05/30 21:44:50;;;;;;;9.83;4.67;;;;;;;17.09;100.00;99610.80;1744984;82;20971;-67
2022/05/30 21:47:17;;;;;;;9.73;4.78;;;;;;;17.15;100.00;99612.27;1741219;81;21064;-68
2022/05/30 21:49:44;;;;;;;8.53;4.75;;;;;;;17.17;100.00;99607.28;1738548;81;21062;-68
2022/05/30 21:52:10;;;;;;;;;;;;;;;17.21;100.00;99608.83;1724141;81;21087;-67
2022/05/30 21:54:36;;;;;;;7.60;4.17;;;;;;;17.24;100.00;99600.75;1736076;81;20173;-67
2022/05/30 21:59:48;;;;;;;10.13;5.03;;;;;;;17.23;100.00;99600.50;1732500;81;20144;-67
2022/05/30 22:02:15;;;;;;;20.50;14.60;;;;;;;17.19;100.00;99604.19;1748053;81;21559;-67
2022/05/30 22:04:41;;;;;;;21.00;14.33;;;;;;;17.19;100.00;99598.69;1745285;81;20975;-67
2022/05/30 22:07:09;;;;;;;24.65;16.87;;;;;;;17.19;100.00;99593.19;1735434;81;21581;-68
2022/05/30 22:09:37;;;;;;;29.32;20.23;;;;;;;17.19;100.00;99598.69;1746872;82;21003;-67
2022/05/30 22:12:04;;;;;;;28.15;19.35;;;;;;;17.17;100.00;99600.41;1740079;81;20991;-68
2022/05/30 22:14:31;;;;;;;17.52;13.75;;;;;;;17.13;100.00;99598.03;1742775;82;21023;-66
2022/05/30 22:16:59;;;;;;;16.97;12.20;;;;;;;16.97;100.00;99591.91;1719765;81;20983;-68
2022/05/30 22:19:27;;;;;;;13.48;9.95;;;;;;;16.93;100.00;99598.02;1732140;82;21035;-68
2022/05/30 22:21:54;;;;;;;12.45;9.48;;;;;;;16.92;100.00;99606.61;1742893;81;21065;-69
2022/05/30 22:24:37;;;;;;;16.40;9.30;;;;;;;16.93;100.00;99599.39;1729476;81;21078;-69
2022/05/30 22:26:50;;;;;;;11.03;7.58;;;;;;;16.91;100.00;99596.72;1726236;81;21008;-69
2022/05/30 22:29:17;;;;;;;8.58;6.12;;;;;;;16.89;100.00;99604.49;1725873;81;21038;-68
2022/05/30 22:31:43;;;;;;;11.33;7.87;;;;;;;16.81;100.00;99595.63;1736199;82;21062;-68
2022/05/30 22:34:10;;;;;;;11.12;6.85;;;;;;;16.70;100.00;99590.16;1731271;81;21075;-68
2022/05/30 22:36:36;;;;;;;10.65;7.12;;;;;;;16.57;100.00;99590.50;1731850;81;20979;-68
2022/05/30 22:39:02;;;;;;;;;;;;;;;16.44;100.00;99589.96;1729305;81;21038;-68
2022/05/30 22:41:29;;;;;;;10.87;5.63;;;;;;;16.36;100.00;99595.68;1735133;81;20413;-69
2022/05/30 22:43:55;;;;;;;9.35;5.12;;;;;;;16.18;100.00;99590.37;1740426;80;21126;-68
2022/05/30 22:46:21;;;;;;;;;;;;;;;16.06;100.00;99590.92;1739825;81;21029;-69
2022/05/30 22:48:48;;;;;;;9.30;5.15;;;;;;;15.93;100.00;99587.67;1733158;81;20421;-69
2022/05/30 22:51:15;;;;;;;8.05;4.53;;;;;;;15.77;100.00;99580.34;1736409;81;21529;-68
2022/05/30 22:53:45;;;;;;;11.48;5.00;;;;;;;15.67;100.00;99583.31;1732071;81;21083;-68
2022/05/30 22:56:12;;;;;;;9.10;5.20;;;;;;;15.54;100.00;99580.05;1734425;81;21050;-69
2022/05/30 22:58:39;;;;;;;12.13;5.00;;;;;;;15.44;100.00;99576.92;1724492;81;21039;-68
2022/05/30 23:01:08;;;;;;;8.78;4.58;;;;;;;15.37;100.00;99576.52;1722401;81;21047;-68
2022/05/30 23:03:34;;;;;;;6.92;4.70;;;;;;;15.35;100.00;99578.77;1723549;81;21016;-69
2022/05/30 23:06:00;;;;;;;7.28;4.80;;;;;;;15.37;100.00;99580.64;1729755;81;21035;-68
2022/05/30 23:08:28;;;;;;;10.53;4.53;;;;;;;15.37;100.00;99582.01;1730897;82;21863;-68
2022/05/30 23:11:08;;;;;;;8.20;5.28;;;;;;;15.35;100.00;99589.74;1737709;81;21039;-69
2022/05/30 23:13:56;;;;;;;8.58;4.92;;;;;;;15.35;100.00;99582.89;1744566;81;21055;-68
2022/05/30 23:16:30;;;;;;;8.58;4.85;;;;;;;15.31;100.00;99581.87;1734888;81;21530;-68
2022/05/30 23:18:56;;;;;;;7.83;5.08;;;;;;;15.31;100.00;99595.59;1741378;81;21034;-69
2022/05/30 23:21:26;;;;;;;7.53;4.25;;;;;;;15.31;100.00;99598.33;1700916;83;21078;-68
2022/05/30 23:23:53;;;;;;;7.50;5.08;;;;;;;15.32;100.00;99604.08;1723009;82;21095;-68
2022/05/30 23:26:19;;;;;;;10.58;5.33;;;;;;;15.30;100.00;99601.39;1729777;82;21861;-69
2022/05/30 23:28:46;;;;;;;8.53;4.62;;;;;;;15.28;100.00;99603.05;1717504;81;21035;-68
2022/05/30 23:31:13;;;;;;;8.40;4.45;;;;;;;15.25;100.00;99609.16;1737146;81;21003;-68
2022/05/30 23:33:39;;;;;;;;;;;;;;;15.28;100.00;99607.72;1745373;81;21618;-69
2022/05/30 23:36:06;;;;;;;6.03;4.53;;;;;;;15.32;100.00;99611.48;1739142;82;20132;-68
2022/05/30 23:38:33;;;;;;;5.20;3.87;;;;;;;15.33;100.00;99611.75;1740361;81;21476;-68
2022/05/30 23:46:31;;;;;;;6.15;3.75;;;;;;;15.42;100.00;99616.20;1745155;82;21042;-68
2022/05/30 23:48:58;;;;;;;6.45;4.28;;;;;;;15.45;100.00;99623.81;1737789;81;21046;-68
2022/05/30 23:51:25;;;;;;;7.20;4.25;;;;;;;15.50;100.00;99630.34;1743036;82;21008;-68
2022/05/30 23:53:52;;;;;;;6.47;3.90;;;;;;;15.51;100.00;99628.68;1744593;81;21066;-68
2022/05/30 23:56:20;;;;;;;6.17;3.55;;;;;;;15.52;100.00;99631.66;1740553;82;21044;-68
2022/05/30 23:58:47;;;;;;;7.00;3.90;;;;;;;15.53;100.00;99637.41;1742182;81;21113;-68
